This is the latest recevied weather packets stored in our database for station/object KC3JUG-13. If no packets are shown the sender has not sent any weather packets the latest 1 day(s).
| Time | Temp. | Humidity | Pressure | Rain* | Wind** | Luminosity | Snow |
|---|---|---|---|---|---|---|---|
| 1778051677 | 18.33° C | 73% | 1010.4 hPa | 0 mm | - | - | - |
| 1778050897 | 18.33° C | 72% | 1010.6 hPa | 0 mm | - | - | - |
| 1778049337 | 18.33° C | 70% | 1010.7 hPa | 0 mm | - | - | - |
| 1778048557 | 18.89° C | 69% | 1011 hPa | 0 mm | - | - | - |
| 1778047777 | 18.89° C | 69% | 1011.1 hPa | 0 mm | - | - | - |
| 1778046997 | 18.89° C | 68% | 1011 hPa | 0 mm | - | - | - |
| 1778046217 | 18.89° C | 68% | 1011.2 hPa | 0 mm | - | - | - |
| 1778045437 | 18.89° C | 67% | 1011.3 hPa | 0 mm | - | - | - |
| 1778044657 | 18.89° C | 67% | 1011.3 hPa | 0 mm | - | - | - |
| 1778043877 | 18.89° C | 66% | 1011.4 hPa | 0 mm | - | - | - |
| 1778043097 | 18.89° C | 66% | 1011.4 hPa | 0 mm | - | - | - |
| 1778042317 | 18.89° C | 66% | 1011.4 hPa | 0 mm | - | - | - |
| 1778041537 | 18.89° C | 65% | 1011.5 hPa | 0 mm | - | - | - |
| 1778040757 | 18.89° C | 66% | 1011.5 hPa | 0 mm | - | - | - |
| 1778039977 | 18.89° C | 65% | 1011.6 hPa | 0 mm | - | - | - |
| 1778038417 | 18.89° C | 65% | 1011.5 hPa | 0 mm | - | - | - |
| 1778036857 | 19.44° C | 63% | 1011.4 hPa | 0 mm | - | - | - |
| 1778036077 | 19.44° C | 63% | 1011.6 hPa | 0 mm | - | - | - |
| 1778035297 | 19.44° C | 62% | 1011.5 hPa | 0 mm | - | - | - |
| 1778031397 | 20.56° C | 59% | 1011.2 hPa | 0 mm | - | - | - |
| 1778030649 | 20.56° C | 58% | 1011.4 hPa | 0 mm | - | - | - |
| 1778026718 | 21.67° C | 53% | 1010.8 hPa | 0 mm | - | - | - |
| 1778025938 | 22.22° C | 52% | 1010.6 hPa | 0 mm | - | - | - |
| 1778024378 | 22.78° C | 51% | 1010.4 hPa | 0 mm | - | - | - |
| 1778022038 | 23.89° C | 47% | 1010 hPa | 0 mm | - | - | - |
* Rain latest hour (hover to see other rain measurements)
** Current wind speed in m/s (hover to see current wind gust speed)